Terminal Aerodrome Forecast
Issued by NWS Wilmington, NC

Home | Current Version | Previous Version | Text Only | Print | Product List | Glossary On
Versions: 1 2 3 4 5 6 7 8 9 10 11 12
000
FTUS42 KILM 291700
TAFFLO
TAF
KFLO 291730Z 2918/3018 VRB03KT P6SM SKC
     FM292000 18008KT P6SM SCT040
     FM300200 16005KT P6SM FEW050
     FM300600 VRB03KT 3SM BR SCT005
     FM301400 14008KT P6SM SCT035=

USA.gov is the U.S. government's official web portal to all federal, state and local government web resources and services.